Classifiche di sempre
Migliori tempi personali validi di team tra tutti gli eventi e le stagioni. Ogni team compare una sola volta per divisione.
Cerca per nome e apri la pagina in cui è classificato questo record di divisione.
138,172 team in classifica
| Pos. | Pos. AG | Team | Nazionalità | Categoria età | TempoMiglior tempo | Distacco |
|---|---|---|---|---|---|---|
| 137952 | #49256 | Sumit Suhag & Maninder Singh BansalIND · M 30-34 · AG #49256 | IND | M 30-34 | 2:24:15 | +96:35 |
| 137953 | #49257 | Brain Millage & Bradley MillerUSA · M 30-34 · AG #49257 | USA | M 30-34 | 2:24:18 | +96:38 |
| 137954 | #17685 | Aloysius Peter & Lucas YuenSIN · M 25-29 · AG #17685 | SIN | M 25-29 | 2:24:18 | +96:38 |
| 137955 | #49258 | Gaston Gamez navarro & Kevin Gamez navarroMEX · M 30-34 · AG #49258 | MEX | M 30-34 | 2:24:22 | +96:42 |
| 137956 | #17686 | Tyler Davis & Ryan PandyM 25-29 · AG #17686 | -- | M 25-29 | 2:24:32 | +96:52 |
| 137957 | #17687 | Randy Scroppo & Christian GibbsUSA · M 25-29 · AG #17687 | USA | M 25-29 | 2:24:51 | +97:11 |
| 137958 | #3260 | J. Antonio Cortés Arellano & José Antonio Cortés LaresMEX · M 50-54 · AG #3260 | MEX | M 50-54 | 2:24:51 | +97:11 |
| 137959 | #10133 | 胜 吕 & 中 陈CHN · M 16-24 · AG #10133 | CHN | M 16-24 | 2:24:54 | +97:14 |
| 137960 | #49259 | Ho Fung Chan & Shian Ming LeeM 30-34 · AG #49259 | -- | M 30-34 | 2:24:55 | +97:15 |
| 137961 | #49260 | Saeed Saeed & Mohammed MohammedQAT · M 30-34 · AG #49260 | QAT | M 30-34 | 2:24:59 | +97:19 |
| 137962 | #4448 | 振緯 CHEN-WEI 黃 HUANG & 著正 Chu Cheng 温 WenTPE · M 45-49 · AG #4448 | TPE | M 45-49 | 2:25:01 | +97:21 |
| 137963 | #4449 | Natikorn Prakobboon & Suwat WuthichairattanapornTHA · M 45-49 · AG #4449 | THA | M 45-49 | 2:25:02 | +97:22 |
| 137964 | #49261 | Arnulfo Villaseñor Guzmán & Carlos Adrian Tamez HernandezMEX · M 30-34 · AG #49261 | MEX | M 30-34 | 2:25:15 | +97:35 |
| 137965 | #557 | John Chan K T & Kam Fung HungHKG · M 55-59 · AG #557 | HKG | M 55-59 | 2:25:16 | +97:36 |
| 137966 | #3261 | Daniel Seymour & Virendra SudIND · M 50-54 · AG #3261 | IND | M 50-54 | 2:25:19 | +97:39 |
| 137967 | #49262 | Pritam Shrestha & Saransh AggarwalM 30-34 · AG #49262 | -- | M 30-34 | 2:25:23 | +97:43 |
| 137968 | #558 | Kong Seng Koh & Chong Mien TehSIN · M 55-59 · AG #558 | SIN | M 55-59 | 2:25:27 | +97:47 |
| 137969 | #16398 | Keith Mushonga & Nelson M NazareM 35-39 · AG #16398 | -- | M 35-39 | 2:25:28 | +97:48 |
| 137970 | #19808 | Mohamad Taufiq Abdul Razak & Seow Lye LimSIN · M 40-44 · AG #19808 | SIN | M 40-44 | 2:25:30 | +97:50 |
| 137971 | #17688 | Hezekiah Hightower & Isiah HightowerUSA · M 25-29 · AG #17688 | USA | M 25-29 | 2:25:32 | +97:52 |
| 137972 | #49263 | Song Liu & Xiang HeM 30-34 · AG #49263 | -- | M 30-34 | 2:25:32 | +97:52 |
| 137973 | -- | Lincoln Chen & Zhao Yang TanSIN · M MU29 | SIN | M MU29 | 2:25:35 | +97:55 |
| 137974 | -- | Luis Gerardo Camacho Estrada & Diego Andres González OrtizMEX · M MU29 | MEX | M MU29 | 2:25:36 | +97:56 |
| 137975 | #10134 | Ritesh Dagde & Ritesh JadhavIND · M 16-24 · AG #10134 | IND | M 16-24 | 2:25:43 | +98:03 |
| 137976 | #4450 | Lindsay Samuels & Phillip FortuinRSA · M 45-49 · AG #4450 | RSA | M 45-49 | 2:25:50 | +98:10 |
Pagina 5,519 di 5,527